createdAt,value
2022-08-05T00:02:07.616Z,29.40
2022-08-05T00:04:36.642Z,29.40
2022-08-05T00:07:27.510Z,29.30
2022-08-05T00:09:53.593Z,29.20
2022-08-05T00:12:23.579Z,29.00
2022-08-05T00:14:52.058Z,28.90
2022-08-05T00:17:22.063Z,28.80
2022-08-05T00:20:02.816Z,28.70
2022-08-05T00:22:31.640Z,28.60
2022-08-05T00:24:59.707Z,28.60
2022-08-05T00:27:36.310Z,28.50
2022-08-05T00:30:05.977Z,28.50
2022-08-05T00:32:41.903Z,28.40
2022-08-05T00:35:11.974Z,28.40
2022-08-05T00:42:59.320Z,28.30
2022-08-05T00:45:43.057Z,28.30
2022-08-05T00:50:48.457Z,28.30
2022-08-05T00:54:00.057Z,28.30
2022-08-05T00:56:09.274Z,28.30
2022-08-05T00:58:39.682Z,28.30
2022-08-05T01:01:12.264Z,28.30
2022-08-05T01:03:43.777Z,28.30
2022-08-05T01:06:18.654Z,28.30
2022-08-05T01:08:47.546Z,28.20
2022-08-05T01:11:22.718Z,28.20
2022-08-05T01:14:01.914Z,28.20
2022-08-05T01:16:36.605Z,28.20
2022-08-05T01:19:21.026Z,28.20
2022-08-05T01:22:18.691Z,28.20
2022-08-05T01:25:06.549Z,28.20
2022-08-05T01:28:21.978Z,28.20
2022-08-05T01:30:55.837Z,28.10
2022-08-05T01:33:35.301Z,28.10
2022-08-05T01:36:13.008Z,28.20
2022-08-05T01:38:48.304Z,28.10
2022-08-05T01:41:26.051Z,28.20
2022-08-05T01:43:58.466Z,28.20
2022-08-05T01:46:41.896Z,28.10
2022-08-05T01:49:22.813Z,28.20
2022-08-05T01:51:58.344Z,28.20
2022-08-05T01:54:31.365Z,28.20
2022-08-05T01:58:11.870Z,28.20
2022-08-05T01:59:53.152Z,28.30
2022-08-05T02:02:28.480Z,28.30
2022-08-05T02:05:01.298Z,28.40
2022-08-05T02:07:32.226Z,28.40
2022-08-05T02:10:02.587Z,28.30
2022-08-05T02:12:41.259Z,28.30
2022-08-05T02:15:15.548Z,28.20
2022-08-05T02:18:31.092Z,27.90
2022-08-05T02:20:49.340Z,27.90
2022-08-05T02:23:22.405Z,27.90
2022-08-05T02:25:53.955Z,27.90
2022-08-05T02:28:28.961Z,27.70
2022-08-05T02:31:07.674Z,27.40
2022-08-05T02:33:49.931Z,27.30
2022-08-05T02:36:31.157Z,27.30
2022-08-05T02:39:03.050Z,27.30
2022-08-05T02:41:42.855Z,27.40
2022-08-05T02:44:24.016Z,27.50
2022-08-05T02:47:00.443Z,27.60
2022-08-05T02:49:37.444Z,27.70
2022-08-05T02:52:13.637Z,27.80
2022-08-05T02:55:02.007Z,27.90
2022-08-05T02:58:19.916Z,27.90
2022-08-05T03:00:25.409Z,27.90
2022-08-05T03:02:58.491Z,27.90
2022-08-05T03:06:54.362Z,27.80
2022-08-05T03:08:26.971Z,27.80
2022-08-05T03:11:41.276Z,27.80
2022-08-05T03:13:51.683Z,27.50
2022-08-05T03:16:31.769Z,27.10
2022-08-05T03:19:01.085Z,26.80
2022-08-05T03:21:41.624Z,26.70
2022-08-05T03:24:18.222Z,26.70
2022-08-05T03:27:58.914Z,26.80
2022-08-05T03:30:33.557Z,26.70
2022-08-05T03:33:02.950Z,26.70
2022-08-05T03:35:33.985Z,26.80
2022-08-05T03:38:14.533Z,26.70
2022-08-05T03:40:45.396Z,26.80
2022-08-05T03:44:08.107Z,26.90
2022-08-05T03:46:08.157Z,26.90
2022-08-05T03:48:40.323Z,26.90
2022-08-05T03:52:37.527Z,26.60
2022-08-05T03:55:50.310Z,26.60
2022-08-05T03:57:16.111Z,26.30
2022-08-05T03:59:54.916Z,25.90
2022-08-05T04:02:38.514Z,25.90
2022-08-05T04:05:15.047Z,25.90
2022-08-05T04:07:51.463Z,25.90
2022-08-05T04:10:37.148Z,25.90
2022-08-05T04:13:07.888Z,26.00
2022-08-05T04:15:36.752Z,26.00
2022-08-05T04:18:09.429Z,26.00
2022-08-05T04:20:37.999Z,25.90
2022-08-05T04:23:12.200Z,25.90
2022-08-05T04:26:00.627Z,25.80
2022-08-05T04:28:30.959Z,25.70
2022-08-05T04:31:01.952Z,25.70
2022-08-05T04:34:19.378Z,25.70
2022-08-05T04:36:44.795Z,25.50
2022-08-05T04:39:16.329Z,25.40
2022-08-05T04:41:46.212Z,25.40
2022-08-05T04:44:21.457Z,25.30
2022-08-05T04:46:58.599Z,25.20
2022-08-05T04:50:00.979Z,25.30
2022-08-05T04:52:15.311Z,25.30
2022-08-05T04:54:43.987Z,25.50
2022-08-05T04:57:14.109Z,25.60
2022-08-05T05:00:07.837Z,25.10
2022-08-05T05:05:28.108Z,25.10
2022-08-05T05:08:05.692Z,25.10
2022-08-05T05:10:55.960Z,25.10
2022-08-05T05:13:43.150Z,24.90
2022-08-05T05:19:18.768Z,24.80
2022-08-05T05:21:50.488Z,24.80
2022-08-05T05:27:24.779Z,24.30
2022-08-05T05:30:29.173Z,24.10
2022-08-05T05:33:00.987Z,24.30
2022-08-05T05:35:37.615Z,24.30
2022-08-05T05:38:09.161Z,24.30
2022-08-05T05:40:49.954Z,24.40
2022-08-05T05:43:54.030Z,24.50
2022-08-05T05:46:17.461Z,24.30
2022-08-05T05:48:48.014Z,24.10
2022-08-05T05:51:24.541Z,24.10
2022-08-05T05:53:58.598Z,24.20
2022-08-05T05:56:33.279Z,24.00
2022-08-05T05:59:05.764Z,24.20
2022-08-05T06:01:39.441Z,24.30
2022-08-05T06:04:11.778Z,24.40
2022-08-05T06:06:43.191Z,24.40
2022-08-05T06:09:17.532Z,24.60
2022-08-05T06:12:02.139Z,24.80
2022-08-05T06:14:31.694Z,24.60
2022-08-05T06:17:22.623Z,24.50
2022-08-05T06:19:56.533Z,24.30
2022-08-05T06:22:29.159Z,24.20
2022-08-05T06:24:58.162Z,24.50
2022-08-05T06:28:12.750Z,24.50
2022-08-05T06:30:19.943Z,24.50
2022-08-05T06:32:51.159Z,24.70
2022-08-05T06:36:02.999Z,24.80
2022-08-05T06:38:11.657Z,25.00
2022-08-05T06:40:44.400Z,25.10
2022-08-05T06:43:58.581Z,24.60
2022-08-05T06:46:06.641Z,24.70
2022-08-05T06:48:56.261Z,24.60
2022-08-05T06:51:29.980Z,24.40
2022-08-05T06:54:00.373Z,24.80
2022-08-05T06:56:34.535Z,24.70
2022-08-05T06:59:08.352Z,24.60
2022-08-05T07:01:41.508Z,24.40
2022-08-05T07:04:15.296Z,24.40
2022-08-05T07:06:50.347Z,24.30
2022-08-05T07:09:21.786Z,24.50
2022-08-05T07:11:53.623Z,23.40
2022-08-05T07:14:39.571Z,22.40
2022-08-05T07:18:02.422Z,22.40
2022-08-05T07:20:31.565Z,22.20
2022-08-05T07:22:47.827Z,22.30
2022-08-05T07:25:22.695Z,22.30
2022-08-05T07:27:57.722Z,22.30
2022-08-05T07:30:32.829Z,22.50
2022-08-05T07:33:05.199Z,22.70
2022-08-05T07:36:02.654Z,22.90
2022-08-05T07:38:34.489Z,23.00
2022-08-05T07:42:06.976Z,23.00
2022-08-05T07:43:56.338Z,23.10
2022-08-05T07:46:30.827Z,23.10
2022-08-05T07:49:05.487Z,24.40
2022-08-05T07:51:40.819Z,23.20
2022-08-05T07:54:26.358Z,23.20
2022-08-05T07:57:13.976Z,23.30
2022-08-05T07:59:48.944Z,23.30
2022-08-05T08:02:18.324Z,23.30
2022-08-05T08:04:48.247Z,23.10
2022-08-05T08:07:22.224Z,23.20
2022-08-05T08:09:54.882Z,23.20
2022-08-05T08:12:36.825Z,23.00
2022-08-05T08:15:15.132Z,22.90
2022-08-05T08:17:46.056Z,23.00
2022-08-05T08:20:43.222Z,23.30
2022-08-05T08:23:11.565Z,23.30
2022-08-05T08:26:04.498Z,23.20
2022-08-05T08:28:36.996Z,23.10
2022-08-05T08:31:26.961Z,23.10
2022-08-05T08:34:02.710Z,23.20
2022-08-05T08:36:48.977Z,23.20
2022-08-05T08:39:21.793Z,23.40
2022-08-05T08:41:59.591Z,23.30
2022-08-05T08:45:23.609Z,23.40
2022-08-05T08:48:06.146Z,23.50
2022-08-05T08:50:31.671Z,23.60
2022-08-05T08:53:08.058Z,23.50
2022-08-05T08:56:04.312Z,23.40
2022-08-05T08:58:37.562Z,23.60
2022-08-05T09:01:25.201Z,23.60
2022-08-05T09:04:00.968Z,23.50
2022-08-05T09:06:31.258Z,23.40
2022-08-05T09:09:01.588Z,23.60
2022-08-05T09:11:51.638Z,23.70
2022-08-05T09:14:56.647Z,23.70
2022-08-05T09:17:40.289Z,23.90
2022-08-05T09:20:04.700Z,23.90
2022-08-05T09:23:09.512Z,24.10
2022-08-05T09:26:02.659Z,24.30
2022-08-05T09:28:32.513Z,24.40
2022-08-05T09:31:22.439Z,24.30
2022-08-05T09:33:56.719Z,24.20
2022-08-05T09:36:27.729Z,24.10
2022-08-05T09:39:03.464Z,24.20
2022-08-05T09:41:59.510Z,24.50
2022-08-05T09:44:52.458Z,24.70
2022-08-05T09:47:26.098Z,24.80
2022-08-05T09:50:01.262Z,25.10
2022-08-05T09:52:34.343Z,25.40
2022-08-05T09:55:57.130Z,25.50
2022-08-05T09:57:58.507Z,25.70
2022-08-05T10:00:30.748Z,25.70
2022-08-05T10:03:10.016Z,25.80
2022-08-05T10:05:38.569Z,25.80
2022-08-05T10:08:35.741Z,25.70
2022-08-05T10:10:56.024Z,25.80
2022-08-05T10:13:47.248Z,25.70
2022-08-05T10:16:41.882Z,25.80
2022-08-05T10:19:23.646Z,25.70
2022-08-05T10:22:15.718Z,25.80
2022-08-05T10:24:57.862Z,25.80
2022-08-05T10:28:09.517Z,25.90
2022-08-05T10:32:47.907Z,25.90
2022-08-05T10:33:08.991Z,26.00
2022-08-05T10:35:40.684Z,26.20
2022-08-05T10:38:14.635Z,26.40
2022-08-05T10:40:58.164Z,26.70
2022-08-05T10:43:57.621Z,26.90
2022-08-05T10:46:54.435Z,27.10
2022-08-05T10:49:32.936Z,27.10
2022-08-05T10:52:05.601Z,26.80
2022-08-05T10:54:56.263Z,26.70
2022-08-05T10:57:31.688Z,26.80
2022-08-05T11:00:17.926Z,26.90
2022-08-05T11:03:25.532Z,27.30
2022-08-05T11:06:31.643Z,28.00
2022-08-05T11:09:18.744Z,28.00
2022-08-05T11:12:06.467Z,28.10
2022-08-05T11:17:57.639Z,28.00
2022-08-05T11:21:11.959Z,28.10
2022-08-05T11:24:03.813Z,28.00
2022-08-05T11:26:55.834Z,27.80
2022-08-05T11:29:47.361Z,27.60
2022-08-05T11:32:28.885Z,27.60
2022-08-05T11:34:58.819Z,27.60
2022-08-05T11:38:26.842Z,27.70
2022-08-05T11:41:35.084Z,27.80
2022-08-05T11:44:05.962Z,28.00
2022-08-05T11:46:58.548Z,28.30
2022-08-05T11:49:27.695Z,28.40
2022-08-05T11:52:08.743Z,28.30
2022-08-05T11:54:41.762Z,28.30
2022-08-05T11:57:25.180Z,28.20
2022-08-05T12:00:02.744Z,28.10
2022-08-05T12:02:33.443Z,27.90
2022-08-05T12:05:08.172Z,27.90
2022-08-05T12:08:03.663Z,27.90
2022-08-05T12:10:45.446Z,28.00
2022-08-05T12:13:49.111Z,28.10
2022-08-05T12:16:14.723Z,28.10
2022-08-05T12:18:49.593Z,28.20
2022-08-05T12:21:24.125Z,28.20
2022-08-05T12:24:04.881Z,28.10
2022-08-05T12:27:33.632Z,28.30
2022-08-05T12:30:06.661Z,28.40
2022-08-05T12:32:37.093Z,28.40
2022-08-05T12:35:09.405Z,28.40
2022-08-05T12:37:38.583Z,28.50
2022-08-05T12:40:26.371Z,28.50
2022-08-05T12:42:57.599Z,28.40
2022-08-05T12:45:42.762Z,28.30
2022-08-05T12:48:26.906Z,28.30
2022-08-05T12:51:21.667Z,28.40
2022-08-05T12:54:14.708Z,28.20
2022-08-05T12:56:51.026Z,28.20
2022-08-05T12:59:46.679Z,28.10
2022-08-05T13:02:13.739Z,28.00
2022-08-05T13:04:52.555Z,27.90
2022-08-05T13:07:56.007Z,27.90
2022-08-05T13:10:19.979Z,28.00
2022-08-05T13:12:57.100Z,27.90
2022-08-05T13:15:41.387Z,27.80
2022-08-05T13:18:20.735Z,27.70
2022-08-05T13:20:50.313Z,27.80
2022-08-05T13:23:22.514Z,27.80
2022-08-05T13:25:59.338Z,27.80
2022-08-05T13:28:32.337Z,27.70
2022-08-05T13:31:03.277Z,27.60
2022-08-05T13:34:21.194Z,27.50
2022-08-05T13:36:30.740Z,27.40
2022-08-05T13:40:12.743Z,27.40
2022-08-05T13:42:05.924Z,27.40
2022-08-05T13:44:40.949Z,27.40
2022-08-05T13:47:35.039Z,27.40
2022-08-05T13:50:08.968Z,27.40
2022-08-05T13:52:39.862Z,27.40
2022-08-05T13:55:40.706Z,27.40
2022-08-05T13:58:14.387Z,27.30
2022-08-05T14:01:02.084Z,27.40
2022-08-05T14:03:35.894Z,27.40
2022-08-05T14:06:26.627Z,27.60
2022-08-05T14:08:55.529Z,27.00
2022-08-05T14:11:28.336Z,27.50
2022-08-05T14:13:59.855Z,27.60
2022-08-05T14:16:28.316Z,27.70
2022-08-05T14:18:56.524Z,27.60
2022-08-05T14:22:10.244Z,27.60
2022-08-05T14:24:22.650Z,27.60
2022-08-05T14:27:17.711Z,27.50
2022-08-05T14:29:51.290Z,27.50
2022-08-05T14:32:26.859Z,27.40
2022-08-05T14:34:56.949Z,27.20
2022-08-05T14:37:44.827Z,26.90
2022-08-05T14:40:16.783Z,26.80
2022-08-05T14:42:45.862Z,26.90
2022-08-05T14:45:14.293Z,27.00
2022-08-05T14:48:03.501Z,26.90
2022-08-05T14:50:31.763Z,26.70
2022-08-05T14:53:02.087Z,26.60
2022-08-05T14:55:39.353Z,26.50
2022-08-05T14:58:11.097Z,26.40
2022-08-05T15:00:58.800Z,26.40
2022-08-05T15:03:33.172Z,26.30
2022-08-05T15:06:12.889Z,26.20
2022-08-05T15:08:59.823Z,26.10
2022-08-05T15:11:51.751Z,26.00
2022-08-05T15:14:35.617Z,26.10
2022-08-05T15:17:44.321Z,26.00
2022-08-05T15:20:00.059Z,25.90
2022-08-05T15:22:28.835Z,25.80
2022-08-05T15:24:59.935Z,25.80
2022-08-05T15:27:32.101Z,25.70
2022-08-05T15:30:05.412Z,25.70
2022-08-05T15:32:33.696Z,25.70
2022-08-05T15:35:04.067Z,25.60
2022-08-05T15:38:32.353Z,25.60
2022-08-05T15:40:58.278Z,25.40
2022-08-05T15:43:20.590Z,25.40
2022-08-05T15:46:00.394Z,25.40
2022-08-05T15:48:30.097Z,25.50
2022-08-05T15:51:01.547Z,25.40
2022-08-05T15:53:38.300Z,25.40
2022-08-05T15:56:20.689Z,25.40
2022-08-05T15:58:49.653Z,25.30
2022-08-05T16:01:19.028Z,25.20
2022-08-05T16:03:50.881Z,25.20
2022-08-05T16:06:22.873Z,25.20
2022-08-05T16:08:55.248Z,25.30
2022-08-05T16:11:40.017Z,25.20
2022-08-05T16:14:17.292Z,25.30
2022-08-05T16:16:47.436Z,25.30
2022-08-05T16:19:19.242Z,25.30
2022-08-05T16:21:58.878Z,25.30
2022-08-05T16:24:41.308Z,25.20
2022-08-05T16:28:02.257Z,25.20
2022-08-05T16:30:36.170Z,25.20
2022-08-05T16:33:04.595Z,25.20
2022-08-05T16:35:33.728Z,25.30
2022-08-05T16:38:18.644Z,25.20
2022-08-05T16:40:55.133Z,25.20
2022-08-05T16:43:26.801Z,25.10
2022-08-05T16:46:07.097Z,25.00
2022-08-05T16:48:46.126Z,25.00
2022-08-05T16:51:16.007Z,24.90
2022-08-05T16:54:04.214Z,24.80
2022-08-05T16:56:35.125Z,24.80
2022-08-05T16:59:09.308Z,24.70
2022-08-05T17:01:53.803Z,24.70
2022-08-05T17:04:27.432Z,24.90
2022-08-05T17:07:00.421Z,24.90
2022-08-05T17:09:30.098Z,24.80
2022-08-05T17:11:59.732Z,24.80
2022-08-05T17:14:37.407Z,24.80
2022-08-05T17:17:15.030Z,24.80
2022-08-05T17:19:46.051Z,24.90
2022-08-05T17:22:17.848Z,24.80
2022-08-05T17:24:56.863Z,24.80
2022-08-05T17:27:27.460Z,24.80
2022-08-05T17:30:12.107Z,24.90
2022-08-05T17:32:47.937Z,24.90
2022-08-05T17:35:20.834Z,24.90
2022-08-05T17:37:50.590Z,24.90
2022-08-05T17:40:22.640Z,25.00
2022-08-05T17:42:53.017Z,24.90
2022-08-05T17:45:29.582Z,24.80
2022-08-05T17:48:08.080Z,24.80
2022-08-05T17:50:36.779Z,24.90
2022-08-05T17:53:08.638Z,24.80
2022-08-05T17:55:40.006Z,24.80
2022-08-05T17:58:13.072Z,24.80
2022-08-05T18:00:47.492Z,24.70
2022-08-05T18:06:10.998Z,24.60
2022-08-05T18:11:24.793Z,24.50
2022-08-05T18:14:03.571Z,24.50
2022-08-05T18:16:34.301Z,24.50
2022-08-05T18:19:05.378Z,24.50
2022-08-05T18:22:07.142Z,24.50
2022-08-05T18:24:23.640Z,24.60
2022-08-05T18:27:18.649Z,24.50
2022-08-05T18:29:54.054Z,24.40
2022-08-05T18:32:27.749Z,24.30
2022-08-05T18:34:56.784Z,24.40
2022-08-05T18:37:34.868Z,24.40
2022-08-05T18:40:34.146Z,24.30
2022-08-05T18:42:58.762Z,24.30
2022-08-05T18:45:41.751Z,24.20
2022-08-05T18:48:30.856Z,24.20
2022-08-05T18:52:04.747Z,24.20
2022-08-05T18:54:06.720Z,24.10
2022-08-05T18:56:38.071Z,24.00
2022-08-05T18:59:41.958Z,24.10
2022-08-05T19:01:58.419Z,23.90
2022-08-05T19:04:30.465Z,23.80
2022-08-05T19:07:01.303Z,23.70
2022-08-05T19:09:39.238Z,23.70
2022-08-05T19:12:10.589Z,23.70
2022-08-05T19:15:00.761Z,23.60
2022-08-05T19:17:33.800Z,23.60
2022-08-05T19:20:18.964Z,23.60
2022-08-05T19:22:49.349Z,23.60
2022-08-05T19:25:21.745Z,23.50
2022-08-05T19:27:59.593Z,23.50
2022-08-05T19:30:28.352Z,23.50
2022-08-05T19:32:57.261Z,23.50
2022-08-05T19:35:27.303Z,23.40
2022-08-05T19:38:15.458Z,23.40
2022-08-05T19:40:52.539Z,23.30
2022-08-05T19:44:04.228Z,23.30
2022-08-05T19:46:16.640Z,23.20
2022-08-05T19:49:02.852Z,23.40
2022-08-05T19:52:09.436Z,23.30
2022-08-05T19:54:31.193Z,23.30
2022-08-05T19:57:06.495Z,23.20
2022-08-05T20:00:01.079Z,23.10
2022-08-05T20:02:34.278Z,23.10
2022-08-05T20:05:04.844Z,23.10
2022-08-05T20:34:32.058Z,22.80
2022-08-05T20:37:00.999Z,22.80
2022-08-05T20:39:36.450Z,22.80
2022-08-05T20:42:05.759Z,22.70
2022-08-05T20:44:41.634Z,22.60
2022-08-05T20:47:10.716Z,22.60
2022-08-05T20:49:39.875Z,22.60
2022-08-05T20:52:10.634Z,22.50
2022-08-05T20:54:59.088Z,22.50
2022-08-05T20:57:44.107Z,22.50
2022-08-05T21:00:40.808Z,22.40
2022-08-05T21:03:08.433Z,22.40
2022-08-05T21:05:54.462Z,22.40
2022-08-05T21:08:26.875Z,22.30
2022-08-05T21:11:11.629Z,22.40
2022-08-05T21:13:55.682Z,22.40
2022-08-05T21:16:30.791Z,22.30
2022-08-05T21:19:03.821Z,22.30
2022-08-05T21:21:39.430Z,22.20
2022-08-05T21:24:15.213Z,22.20
2022-08-05T21:26:53.267Z,22.20
2022-08-05T21:29:31.695Z,22.20
2022-08-05T21:32:02.770Z,22.30
2022-08-05T21:34:31.600Z,22.20
2022-08-05T21:37:01.656Z,22.20
2022-08-05T21:39:30.254Z,22.20
2022-08-05T21:42:03.422Z,22.10
2022-08-05T21:44:32.252Z,22.10
2022-08-05T21:47:02.729Z,22.00
2022-08-05T21:49:56.892Z,22.00
2022-08-05T21:52:28.331Z,21.90
2022-08-05T21:55:06.157Z,21.80
2022-08-05T21:57:36.279Z,21.80
2022-08-05T22:00:11.141Z,21.70
2022-08-05T22:05:11.703Z,21.80
2022-08-05T22:07:59.380Z,21.80
2022-08-05T22:10:29.407Z,21.80
2022-08-05T22:13:09.173Z,21.70
2022-08-05T22:16:00.814Z,21.50
2022-08-05T22:24:08.786Z,21.50
2022-08-05T22:27:10.971Z,21.50
2022-08-05T22:29:46.024Z,21.40
2022-08-05T22:32:17.724Z,21.40
2022-08-05T22:34:48.791Z,21.50
2022-08-05T22:37:17.134Z,21.50
2022-08-05T22:42:26.028Z,21.40
2022-08-05T22:45:00.432Z,21.40
2022-08-05T22:52:57.503Z,21.50
2022-08-05T22:55:27.609Z,21.40
2022-08-05T23:01:01.098Z,21.40
2022-08-05T23:03:58.503Z,21.40
2022-08-05T23:08:54.779Z,21.30
2022-08-05T23:11:26.143Z,21.30
2022-08-05T23:19:23.767Z,21.10
2022-08-05T23:21:56.188Z,21.00
2022-08-05T23:24:24.507Z,21.10
2022-08-05T23:26:55.596Z,21.00
2022-08-05T23:34:39.573Z,20.90
2022-08-05T23:37:09.634Z,21.00
2022-08-05T23:39:53.271Z,21.00
2022-08-05T23:42:28.988Z,20.90
2022-08-05T23:44:57.706Z,21.00
2022-08-05T23:47:33.719Z,21.00
2022-08-05T23:50:02.027Z,20.90
2022-08-05T23:52:36.065Z,20.90
2022-08-05T23:57:51.019Z,20.80
